Time;durP1;ratioP1;P1;durP2;ratioP2;P2;SDS_P1;SDS_P2;PMS_P1;PMS_P2;Temp;Humidity;BMP_temperature;BMP_pressure;BME280_temperature;BME280_humidity;BME280_pressure;Samples;Min_cycle;Max_cycle;Signal;HPM_P1;HPM_P2
2023/11/17 00:02:06;;;;;;;4.05;3.22;;;6.30;99.90;;;;;;5032198;28;20149;-65
2023/11/17 00:04:39;;;;;;;5.65;3.33;;;6.20;99.90;;;;;;5043843;28;20048;-64
2023/11/17 00:07:10;;;;;;;3.95;2.80;;;6.20;99.90;;;;;;5045371;28;20048;-64
2023/11/17 00:09:42;;;;;;;3.67;2.30;;;6.20;99.90;;;;;;5038953;28;20045;-64
2023/11/17 00:12:14;;;;;;;1.77;1.60;;;6.20;99.90;;;;;;5048132;28;20053;-65
2023/11/17 00:14:46;;;;;;;2.38;1.95;;;6.20;99.90;;;;;;5039297;28;20056;-64
2023/11/17 00:17:18;;;;;;;2.10;1.05;;;6.20;99.90;;;;;;5042621;28;20046;-64
2023/11/17 00:19:51;;;;;;;1.20;0.82;;;6.20;99.90;;;;;;5042525;28;20132;-65
2023/11/17 00:22:23;;;;;;;1.10;0.90;;;6.20;99.90;;;;;;5045566;28;20063;-64
2023/11/17 00:24:55;;;;;;;1.40;0.70;;;6.20;99.90;;;;;;5045425;28;20072;-64
2023/11/17 00:27:26;;;;;;;1.15;0.80;;;6.20;99.90;;;;;;5044744;28;20099;-64
2023/11/17 00:29:59;;;;;;;1.67;0.93;;;6.10;99.90;;;;;;5048062;28;20064;-64
2023/11/17 00:32:31;;;;;;;1.38;0.98;;;6.10;99.90;;;;;;5028424;28;20060;-64
2023/11/17 00:35:05;;;;;;;1.45;1.00;;;6.00;99.90;;;;;;5044717;28;20146;-64
2023/11/17 00:37:39;;;;;;;2.33;1.40;;;6.00;99.90;;;;;;5045575;28;20040;-64
2023/11/17 00:40:07;;;;;;;2.20;1.70;;;5.90;99.90;;;;;;5047278;28;20305;-64
2023/11/17 00:42:39;;;;;;;1.75;1.45;;;5.90;99.90;;;;;;5040783;28;20127;-64
2023/11/17 00:45:07;;;;;;;1.98;1.30;;;5.80;99.90;;;;;;5031873;28;20061;-65
2023/11/17 00:47:40;;;;;;;1.60;1.15;;;5.70;99.90;;;;;;5036508;28;20041;-64
2023/11/17 00:50:12;;;;;;;1.17;1.00;;;5.60;99.90;;;;;;5036448;28;20050;-64
2023/11/17 00:52:44;;;;;;;2.28;1.00;;;5.50;99.90;;;;;;5035992;28;20037;-64
2023/11/17 00:55:16;;;;;;;2.55;1.00;;;5.50;99.90;;;;;;5033833;28;20033;-65
2023/11/17 00:57:47;;;;;;;3.15;1.27;;;5.40;99.90;;;;;;5040384;28;20531;-64
2023/11/17 01:00:20;;;;;;;1.23;1.00;;;5.30;99.90;;;;;;5036926;28;20041;-65
2023/11/17 01:02:52;;;;;;;1.90;1.35;;;5.30;99.90;;;;;;5038644;28;20401;-64
2023/11/17 01:05:24;;;;;;;0.93;0.70;;;5.30;99.90;;;;;;5044104;28;20099;-65
2023/11/17 01:07:56;;;;;;;3.95;1.98;;;5.20;99.90;;;;;;5035417;28;20049;-65
2023/11/17 01:10:24;;;;;;;2.05;0.90;;;5.20;99.90;;;;;;5045903;28;20515;-64
2023/11/17 01:12:56;;;;;;;1.00;0.77;;;5.10;99.90;;;;;;5036121;28;20502;-65
2023/11/17 01:15:28;;;;;;;0.80;0.60;;;5.10;99.90;;;;;;5045963;28;20069;-65
2023/11/17 01:18:07;;;;;;;1.85;0.73;;;5.00;99.90;;;;;;5036195;28;20033;-65
2023/11/17 01:20:38;;;;;;;0.95;0.60;;;5.00;99.90;;;;;;5041392;28;20045;-65
2023/11/17 01:23:13;;;;;;;1.17;0.60;;;4.90;99.90;;;;;;5037799;28;20051;-65
2023/11/17 01:25:45;;;;;;;0.45;0.30;;;4.90;99.90;;;;;;5028295;28;20052;-65
2023/11/17 01:28:12;;;;;;;0.80;0.60;;;4.80;99.90;;;;;;5034737;28;20401;-65
2023/11/17 01:30:44;;;;;;;0.80;0.50;;;4.80;99.90;;;;;;5037067;28;20037;-65
2023/11/17 01:33:11;;;;;;;0.75;0.40;;;4.80;99.90;;;;;;5037264;28;20037;-65
2023/11/17 01:35:43;;;;;;;1.33;0.60;;;4.80;99.90;;;;;;5037176;28;20037;-64
2023/11/17 01:38:13;;;;;;;0.70;0.50;;;4.70;99.90;;;;;;5038992;28;20087;-65
2023/11/17 01:40:40;;;;;;;0.57;0.40;;;4.70;99.90;;;;;;5027830;28;20080;-64
2023/11/17 01:43:13;;;;;;;0.55;0.43;;;4.60;99.90;;;;;;5015285;28;20052;-65
2023/11/17 01:45:39;;;;;;;0.80;0.60;;;4.60;99.90;;;;;;5039726;28;20051;-65
2023/11/17 01:48:12;;;;;;;1.02;0.80;;;4.60;99.90;;;;;;5035856;28;20053;-65
2023/11/17 01:50:44;;;;;;;0.90;0.65;;;4.50;99.90;;;;;;5036574;28;20041;-64
2023/11/17 01:53:19;;;;;;;0.85;0.60;;;4.50;99.90;;;;;;5018457;28;20045;-65
2023/11/17 01:55:51;;;;;;;1.30;0.93;;;4.50;99.90;;;;;;5042102;28;20062;-64
2023/11/17 01:58:27;;;;;;;1.10;0.82;;;4.50;99.90;;;;;;5039311;28;20094;-64
2023/11/17 02:01:00;;;;;;;1.48;0.77;;;4.40;99.90;;;;;;5034301;28;20057;-64
2023/11/17 02:03:27;;;;;;;1.10;0.70;;;4.40;99.90;;;;;;5035816;28;20044;-65
2023/11/17 02:06:14;;;;;;;0.63;0.45;;;4.40;99.90;;;;;;5033956;28;20460;-65
2023/11/17 02:09:00;;;;;;;1.15;0.55;;;4.40;99.90;;;;;;5036297;28;20037;-64
2023/11/17 02:11:38;;;;;;;0.70;0.50;;;4.40;99.90;;;;;;5034715;28;20041;-64
2023/11/17 02:14:18;;;;;;;1.00;0.63;;;4.30;99.90;;;;;;5037609;28;20116;-64
2023/11/17 02:16:51;;;;;;;0.43;0.40;;;4.20;99.90;;;;;;5046654;28;20037;-65
2023/11/17 02:19:37;;;;;;;0.65;0.47;;;4.20;99.90;;;;;;5038411;28;20041;-64
2023/11/17 02:22:09;;;;;;;1.10;0.50;;;4.20;99.90;;;;;;5045839;28;20307;-64
2023/11/17 02:25:10;;;;;;;0.50;0.40;;;4.10;99.90;;;;;;5041507;28;20048;-64
2023/11/17 02:27:50;;;;;;;0.70;0.43;;;4.10;99.90;;;;;;5044505;28;20116;-64
2023/11/17 02:30:22;;;;;;;0.90;0.50;;;4.00;99.90;;;;;;5042763;28;20073;-64
2023/11/17 02:32:55;;;;;;;0.82;0.52;;;4.00;99.90;;;;;;5039144;28;20095;-64
2023/11/17 02:35:29;;;;;;;0.90;0.50;;;4.00;99.90;;;;;;5056139;28;20047;-64
2023/11/17 02:38:02;;;;;;;;;;;3.90;99.90;;;;;;5039617;28;20079;-64
2023/11/17 02:40:32;;;;;;;0.98;0.50;;;3.90;99.90;;;;;;5034999;28;20435;-64
2023/11/17 02:43:07;;;;;;;0.93;0.47;;;3.90;99.90;;;;;;5040662;28;20037;-65
2023/11/17 02:45:36;;;;;;;0.50;0.40;;;3.90;99.90;;;;;;5031769;28;20128;-64
2023/11/17 02:48:10;;;;;;;0.50;0.40;;;3.80;99.90;;;;;;5033612;28;20056;-64
2023/11/17 02:50:53;;;;;;;0.50;0.40;;;3.80;99.90;;;;;;5040906;28;20052;-64
2023/11/17 02:53:27;;;;;;;0.45;0.35;;;3.80;99.90;;;;;;5042932;28;20045;-64
2023/11/17 02:56:00;;;;;;;1.35;0.80;;;3.80;99.90;;;;;;5039895;28;20060;-64
2023/11/17 02:58:33;;;;;;;0.82;0.50;;;3.80;99.90;;;;;;5036424;28;20041;-64
2023/11/17 03:01:05;;;;;;;0.40;0.40;;;3.80;99.90;;;;;;5047213;28;20037;-64
2023/11/17 03:03:37;;;;;;;0.28;0.28;;;3.80;99.90;;;;;;5025730;28;20118;-65
2023/11/17 03:06:10;;;;;;;0.80;0.47;;;3.80;99.90;;;;;;5045667;28;20612;-64
2023/11/17 03:08:42;;;;;;;1.42;0.40;;;3.70;99.90;;;;;;5044391;28;20045;-65
2023/11/17 03:11:09;;;;;;;0.80;0.63;;;3.70;99.90;;;;;;5039245;28;20030;-64
2023/11/17 03:13:41;;;;;;;0.65;0.40;;;3.70;99.90;;;;;;5031221;28;20460;-65
2023/11/17 03:16:12;;;;;;;1.55;0.90;;;3.80;99.90;;;;;;5036262;28;20513;-65
2023/11/17 03:18:44;;;;;;;0.60;0.43;;;3.80;99.90;;;;;;5046922;28;20576;-65
2023/11/17 03:21:12;;;;;;;0.60;0.50;;;3.80;99.90;;;;;;5035630;28;20110;-64
2023/11/17 03:23:39;;;;;;;1.05;0.50;;;3.80;99.90;;;;;;5041076;28;20037;-65
2023/11/17 03:26:11;;;;;;;1.13;0.50;;;3.80;99.90;;;;;;5032097;28;20056;-65
2023/11/17 03:28:43;;;;;;;0.73;0.60;;;3.80;99.90;;;;;;5041790;28;20040;-65
2023/11/17 03:31:15;;;;;;;0.75;0.57;;;3.80;99.90;;;;;;5022164;28;20048;-64
2023/11/17 03:33:50;;;;;;;0.60;0.40;;;3.80;99.90;;;;;;5035984;28;20046;-64
2023/11/17 03:36:22;;;;;;;0.70;0.57;;;3.80;99.90;;;;;;5040930;28;20489;-64
2023/11/17 03:38:55;;;;;;;1.00;0.50;;;3.90;99.90;;;;;;5019681;28;20041;-64
2023/11/17 03:41:27;;;;;;;1.85;0.68;;;3.90;99.90;;;;;;5036496;28;20057;-64
2023/11/17 03:43:59;;;;;;;0.63;0.47;;;3.90;99.90;;;;;;5039908;28;20079;-64
2023/11/17 03:46:31;;;;;;;0.82;0.50;;;3.90;99.90;;;;;;5036308;28;20119;-64
2023/11/17 03:49:03;;;;;;;1.08;0.50;;;3.90;99.90;;;;;;5033692;28;20041;-64
2023/11/17 03:51:35;;;;;;;0.43;0.40;;;3.80;99.90;;;;;;5041699;28;20505;-64
2023/11/17 03:54:09;;;;;;;0.70;0.40;;;3.80;99.90;;;;;;5039820;28;20037;-64
2023/11/17 03:56:41;;;;;;;;;;;3.90;99.90;;;;;;5045361;28;20042;-65
2023/11/17 03:59:13;;;;;;;0.88;0.43;;;3.90;99.90;;;;;;5035692;28;19974;-64
2023/11/17 04:01:46;;;;;;;0.40;0.40;;;3.90;99.90;;;;;;5022445;28;20421;-65
2023/11/17 04:04:18;;;;;;;0.30;0.30;;;3.90;99.90;;;;;;5039392;28;20064;-65
2023/11/17 04:06:50;;;;;;;0.85;0.30;;;3.90;99.90;;;;;;5039440;28;20056;-65
2023/11/17 04:09:20;;;;;;;0.22;0.22;;;3.90;99.90;;;;;;5038462;28;20080;-64
2023/11/17 04:11:54;;;;;;;0.30;0.30;;;3.80;99.90;;;;;;5041824;28;20041;-64
2023/11/17 04:14:39;;;;;;;0.47;0.30;;;3.90;99.90;;;;;;5032876;28;20045;-64
2023/11/17 04:17:11;;;;;;;0.32;0.30;;;3.90;99.90;;;;;;5041613;28;20056;-65
2023/11/17 04:19:43;;;;;;;0.45;0.30;;;3.90;99.90;;;;;;5045134;28;20047;-65
2023/11/17 04:22:17;;;;;;;0.50;0.30;;;3.90;99.90;;;;;;5034656;28;20136;-65
2023/11/17 04:24:49;;;;;;;0.43;0.30;;;3.90;99.90;;;;;;5042320;28;20052;-65
2023/11/17 04:27:16;;;;;;;0.88;0.45;;;3.90;99.90;;;;;;5022034;28;20140;-65
2023/11/17 04:29:47;;;;;;;0.30;0.28;;;3.90;99.90;;;;;;5038103;28;20069;-64
2023/11/17 04:32:19;;;;;;;0.85;0.40;;;3.90;99.90;;;;;;5037049;28;20064;-65
2023/11/17 04:34:52;;;;;;;0.43;0.30;;;3.90;99.90;;;;;;5037981;28;20038;-65
2023/11/17 04:37:19;;;;;;;0.50;0.30;;;3.90;99.90;;;;;;5037846;28;20033;-65
2023/11/17 04:39:51;;;;;;;0.47;0.38;;;3.90;99.90;;;;;;5039716;28;20447;-65
2023/11/17 04:42:18;;;;;;;0.30;0.20;;;3.90;99.90;;;;;;5039829;28;20049;-65
2023/11/17 04:44:49;;;;;;;0.55;0.30;;;3.90;99.90;;;;;;5042023;28;20052;-65
2023/11/17 04:47:23;;;;;;;0.50;0.40;;;3.90;99.90;;;;;;5036622;28;20052;-65
2023/11/17 04:49:54;;;;;;;1.42;0.60;;;3.80;99.90;;;;;;5031160;28;20624;-65
2023/11/17 04:52:26;;;;;;;1.05;0.40;;;3.90;99.90;;;;;;5022546;28;20413;-65
2023/11/17 04:55:02;;;;;;;1.27;0.32;;;3.90;99.90;;;;;;5041933;28;20038;-65
2023/11/17 04:57:29;;;;;;;0.75;0.55;;;3.90;99.90;;;;;;5034293;28;20120;-65
2023/11/17 04:59:56;;;;;;;1.65;0.57;;;3.90;99.90;;;;;;5039922;28;20125;-65
2023/11/17 05:02:31;;;;;;;0.88;0.50;;;3.90;99.90;;;;;;5034448;28;20426;-66
2023/11/17 05:05:04;;;;;;;0.40;0.30;;;3.90;99.90;;;;;;5041835;28;20484;-65
2023/11/17 05:07:40;;;;;;;0.80;0.50;;;3.90;99.90;;;;;;5037875;28;20041;-65
2023/11/17 05:10:07;;;;;;;0.82;0.40;;;3.90;99.90;;;;;;5035173;28;20041;-65
2023/11/17 05:12:43;;;;;;;0.60;0.43;;;3.90;99.90;;;;;;5032564;28;20559;-65
2023/11/17 05:15:20;;;;;;;1.15;0.47;;;3.90;99.90;;;;;;5026814;28;20038;-65
2023/11/17 05:17:52;;;;;;;0.70;0.50;;;3.90;99.90;;;;;;5035977;28;20041;-66
2023/11/17 05:20:22;;;;;;;2.40;0.43;;;3.90;99.90;;;;;;5037149;28;20398;-65
2023/11/17 05:22:52;;;;;;;0.80;0.40;;;3.90;99.90;;;;;;5045035;28;20136;-66
2023/11/17 05:25:27;;;;;;;0.98;0.60;;;3.90;99.90;;;;;;5034939;28;20502;-66
2023/11/17 05:27:59;;;;;;;0.93;0.80;;;3.90;99.90;;;;;;5037023;28;20504;-65
2023/11/17 05:30:32;;;;;;;0.98;0.70;;;3.80;99.90;;;;;;5036840;28;20053;-70
2023/11/17 05:33:00;;;;;;;0.85;0.60;;;3.80;99.90;;;;;;5035666;28;20037;-65
2023/11/17 05:35:32;;;;;;;2.15;0.98;;;3.80;99.90;;;;;;5035693;28;20036;-65
2023/11/17 05:38:04;;;;;;;2.25;1.00;;;3.90;99.90;;;;;;5034884;28;20124;-65
2023/11/17 05:40:37;;;;;;;1.48;0.93;;;3.90;99.90;;;;;;5040284;28;20441;-67
2023/11/17 05:43:09;;;;;;;0.98;0.70;;;3.90;99.90;;;;;;5035550;28;20033;-67
2023/11/17 05:45:36;;;;;;;1.90;1.20;;;3.90;99.90;;;;;;5032862;28;20052;-65
2023/11/17 05:48:05;;;;;;;2.08;1.30;;;3.90;99.90;;;;;;5037812;28;20045;-65
2023/11/17 05:50:37;;;;;;;1.73;1.50;;;3.80;99.90;;;;;;5038988;28;20397;-65
2023/11/17 05:53:09;;;;;;;2.65;1.80;;;3.80;99.90;;;;;;5046748;28;20060;-65
2023/11/17 05:55:41;;;;;;;2.63;1.70;;;3.80;99.90;;;;;;5039000;28;20117;-65
2023/11/17 05:58:13;;;;;;;1.70;1.50;;;3.70;99.90;;;;;;5037895;28;20111;-66
2023/11/17 06:00:45;;;;;;;2.38;1.65;;;3.70;99.90;;;;;;5035462;28;20086;-65
2023/11/17 06:03:18;;;;;;;2.20;1.40;;;3.70;99.90;;;;;;5043881;28;20759;-66
2023/11/17 06:05:49;;;;;;;3.20;2.00;;;3.80;99.90;;;;;;5047540;28;20053;-65
2023/11/17 06:08:16;;;;;;;2.85;1.30;;;3.80;99.90;;;;;;5041692;28;20045;-65
2023/11/17 06:10:48;;;;;;;1.50;1.10;;;3.70;99.90;;;;;;5038904;28;20056;-66
2023/11/17 06:13:20;;;;;;;1.83;1.10;;;3.70;99.90;;;;;;5046718;28;20041;-65
2023/11/17 06:15:52;;;;;;;3.65;1.38;;;3.70;99.90;;;;;;5044965;28;20068;-65
2023/11/17 06:18:24;;;;;;;2.05;1.20;;;3.60;99.90;;;;;;5043310;28;20051;-66
2023/11/17 06:20:56;;;;;;;2.00;1.23;;;3.70;99.90;;;;;;5038327;28;20052;-65
2023/11/17 06:23:28;;;;;;;1.38;1.13;;;3.70;99.90;;;;;;5040047;28;20045;-65
2023/11/17 06:26:01;;;;;;;1.65;1.10;;;3.70;99.90;;;;;;5044173;28;20118;-65
2023/11/17 06:28:33;;;;;;;1.55;1.38;;;3.70;99.90;;;;;;5040917;28;20402;-65
2023/11/17 06:31:01;;;;;;;1.10;0.85;;;3.70;99.90;;;;;;5041342;28;20052;-65
2023/11/17 06:33:33;;;;;;;1.20;0.90;;;3.70;99.90;;;;;;5042096;28;20033;-65
2023/11/17 06:36:03;;;;;;;3.17;1.20;;;3.80;99.90;;;;;;5049597;28;20133;-65
2023/11/17 06:38:35;;;;;;;2.55;1.70;;;3.80;99.90;;;;;;5040886;28;20048;-65
2023/11/17 06:41:07;;;;;;;2.88;1.30;;;3.80;99.90;;;;;;5042082;28;20509;-66
2023/11/17 06:43:39;;;;;;;2.83;1.60;;;3.80;99.90;;;;;;5043188;28;20045;-65
2023/11/17 06:46:11;;;;;;;2.45;1.63;;;3.90;99.90;;;;;;5036549;28;20052;-65
2023/11/17 06:48:43;;;;;;;2.15;1.63;;;3.80;99.90;;;;;;5045638;28;20436;-65
2023/11/17 06:51:15;;;;;;;1.92;1.58;;;3.90;99.90;;;;;;5027961;28;20048;-65
2023/11/17 06:53:48;;;;;;;2.25;1.50;;;3.90;99.90;;;;;;5045827;28;20631;-66
2023/11/17 06:56:20;;;;;;;1.50;1.20;;;3.80;99.90;;;;;;5043385;28;20047;-66
2023/11/17 06:58:47;;;;;;;2.10;1.70;;;3.90;99.90;;;;;;5044830;28;20052;-65
2023/11/17 07:01:19;;;;;;;1.98;1.27;;;3.90;99.90;;;;;;5041578;28;20045;-65
2023/11/17 07:03:52;;;;;;;2.50;1.40;;;3.90;99.90;;;;;;5044253;28;20505;-65
2023/11/17 07:06:27;;;;;;;1.50;1.10;;;3.90;99.90;;;;;;5041695;28;20046;-65
2023/11/17 07:08:53;;;;;;;1.60;1.02;;;3.80;99.90;;;;;;5041435;28;20283;-65
2023/11/17 07:11:20;;;;;;;1.92;1.40;;;3.90;99.90;;;;;;5041704;28;20498;-65
2023/11/17 07:13:47;;;;;;;2.20;1.38;;;3.90;99.90;;;;;;5040079;28;20779;-65
2023/11/17 07:16:15;;;;;;;2.50;1.60;;;3.90;99.90;;;;;;5041062;28;20133;-65
2023/11/17 07:18:42;;;;;;;1.80;1.42;;;3.80;99.90;;;;;;5045730;28;20040;-66
2023/11/17 07:21:09;;;;;;;2.63;1.65;;;3.90;99.90;;;;;;5043792;28;20045;-65
2023/11/17 07:23:44;;;;;;;1.88;1.25;;;3.90;99.90;;;;;;5045521;28;20487;-65
2023/11/17 07:26:18;;;;;;;3.72;1.65;;;3.90;99.90;;;;;;5043659;28;20406;-66
2023/11/17 07:28:50;;;;;;;3.05;1.60;;;3.90;99.90;;;;;;5042455;28;20051;-67
2023/11/17 07:31:18;;;;;;;4.30;2.50;;;3.90;99.90;;;;;;5017778;28;20051;-65
2023/11/17 07:33:50;;;;;;;2.67;1.90;;;3.90;99.90;;;;;;5043807;28;20037;-65
2023/11/17 07:36:17;;;;;;;2.60;1.88;;;3.90;99.90;;;;;;5047371;28;20037;-66
2023/11/17 07:38:52;;;;;;;2.72;1.70;;;3.90;99.90;;;;;;5042090;28;20045;-66
2023/11/17 07:41:19;;;;;;;1.75;1.65;;;3.90;99.90;;;;;;5030432;28;20131;-65
2023/11/17 07:43:52;;;;;;;3.58;1.50;;;3.90;99.90;;;;;;5041852;28;20041;-66
2023/11/17 07:46:27;;;;;;;3.00;1.90;;;3.90;99.90;;;;;;5041136;28;20071;-65
2023/11/17 07:48:58;;;;;;;3.00;1.52;;;4.00;99.90;;;;;;5043947;28;20099;-66
2023/11/17 07:51:30;;;;;;;3.67;1.92;;;4.00;99.90;;;;;;5039212;28;20124;-65
2023/11/17 07:54:04;;;;;;;3.97;1.70;;;4.00;99.90;;;;;;5046039;28;20040;-65
2023/11/17 07:56:31;;;;;;;2.75;1.83;;;4.00;99.90;;;;;;5042886;28;20475;-65
2023/11/17 07:59:04;;;;;;;2.47;1.77;;;4.00;99.90;;;;;;5045016;28;20037;-65
2023/11/17 08:01:36;;;;;;;4.70;2.83;;;4.00;99.90;;;;;;5034579;28;20046;-65
2023/11/17 08:04:08;;;;;;;2.67;1.75;;;4.00;99.90;;;;;;5043398;28;20690;-65
2023/11/17 08:06:36;;;;;;;2.17;1.70;;;4.00;99.90;;;;;;5038199;28;20045;-66
2023/11/17 08:09:11;;;;;;;2.53;1.88;;;4.00;99.90;;;;;;5042810;28;20091;-65
2023/11/17 08:11:43;;;;;;;2.60;1.70;;;4.10;99.90;;;;;;5042743;28;20056;-65
2023/11/17 08:14:15;;;;;;;1.95;1.65;;;4.00;99.90;;;;;;5041035;28;20048;-65
2023/11/17 08:16:41;;;;;;;3.53;1.65;;;4.00;99.90;;;;;;5041875;28;20038;-65
2023/11/17 08:19:13;;;;;;;2.25;1.60;;;4.00;99.90;;;;;;5037156;28;20041;-65
2023/11/17 08:21:45;;;;;;;2.08;1.70;;;4.00;99.90;;;;;;5036319;28;20042;-65
2023/11/17 08:24:20;;;;;;;4.57;1.90;;;4.00;99.90;;;;;;5037962;28;20513;-65
2023/11/17 08:26:52;;;;;;;1.98;1.63;;;4.00;99.90;;;;;;5040549;28;20041;-65
2023/11/17 08:29:25;;;;;;;1.58;1.30;;;4.00;99.90;;;;;;5033714;28;20045;-65
2023/11/17 08:31:54;;;;;;;1.70;1.50;;;4.00;99.90;;;;;;5033939;28;20133;-65
2023/11/17 08:34:21;;;;;;;1.50;1.35;;;4.00;99.90;;;;;;5035726;28;20041;-65
2023/11/17 08:36:48;;;;;;;2.40;1.48;;;4.00;99.90;;;;;;5037304;28;20124;-65
2023/11/17 08:39:26;;;;;;;2.42;1.50;;;4.00;99.90;;;;;;5038544;28;20048;-66
2023/11/17 08:41:58;;;;;;;3.05;1.40;;;4.10;99.90;;;;;;5036487;28;20517;-65
2023/11/17 08:44:30;;;;;;;2.00;1.23;;;4.10;99.90;;;;;;5037613;28;20072;-66
2023/11/17 08:47:04;;;;;;;2.30;1.50;;;4.10;99.90;;;;;;5034226;28;20038;-66
2023/11/17 08:49:37;;;;;;;2.30;1.50;;;4.20;99.90;;;;;;5038217;28;20041;-66
2023/11/17 08:52:09;;;;;;;1.40;1.08;;;4.10;99.90;;;;;;5037670;28;20061;-66
2023/11/17 08:54:40;;;;;;;1.85;1.25;;;4.20;99.90;;;;;;5032576;28;20037;-65
2023/11/17 08:57:12;;;;;;;2.70;1.30;;;4.20;99.90;;;;;;5035441;28;20056;-66
2023/11/17 08:59:45;;;;;;;2.95;1.70;;;4.20;99.90;;;;;;5042150;28;20041;-66
2023/11/17 09:02:19;;;;;;;2.22;1.55;;;4.20;99.90;;;;;;5037494;28;20519;-65
2023/11/17 09:04:52;;;;;;;2.95;1.70;;;4.20;99.90;;;;;;5031490;28;20053;-65
2023/11/17 09:07:24;;;;;;;2.30;1.40;;;4.20;99.90;;;;;;5038735;28;20073;-65
2023/11/17 09:09:51;;;;;;;4.15;2.13;;;4.20;99.90;;;;;;5036484;28;20044;-66
2023/11/17 09:12:25;;;;;;;1.73;1.27;;;4.20;99.90;;;;;;5033057;28;20053;-66
2023/11/17 09:14:57;;;;;;;2.28;1.70;;;4.30;99.90;;;;;;5040334;28;20103;-66
2023/11/17 09:17:31;;;;;;;2.78;1.38;;;4.30;99.90;;;;;;5030968;28;20061;-66
2023/11/17 09:20:08;;;;;;;2.20;1.48;;;4.30;99.90;;;;;;5033067;28;20039;-65
2023/11/17 09:22:36;;;;;;;2.35;1.58;;;4.30;99.90;;;;;;5044712;28;20045;-66
2023/11/17 09:25:11;;;;;;;1.50;1.20;;;4.30;99.90;;;;;;5040573;28;20041;-65
2023/11/17 09:27:52;;;;;;;2.58;1.50;;;4.30;99.90;;;;;;5038305;28;20152;-66
2023/11/17 09:30:30;;;;;;;3.10;1.20;;;4.40;99.90;;;;;;5045608;28;20052;-66
2023/11/17 09:33:02;;;;;;;2.30;1.58;;;4.40;99.90;;;;;;5044159;28;20122;-66
2023/11/17 09:35:36;;;;;;;2.17;1.40;;;4.40;99.90;;;;;;5039791;28;20044;-66
2023/11/17 09:38:11;;;;;;;1.98;1.40;;;4.40;99.90;;;;;;5046965;28;20551;-66
2023/11/17 09:40:43;;;;;;;1.65;1.17;;;4.50;99.90;;;;;;5042631;28;20052;-66
2023/11/17 09:43:10;;;;;;;1.88;1.30;;;4.50;99.90;;;;;;5044085;28;20037;-66
2023/11/17 09:45:39;;;;;;;2.08;1.33;;;4.50;99.90;;;;;;5043161;28;20041;-66
2023/11/17 09:48:16;;;;;;;3.95;1.42;;;4.60;99.90;;;;;;5044007;28;20040;-66
2023/11/17 09:50:43;;;;;;;1.90;1.58;;;4.60;99.90;;;;;;5052325;28;20052;-66
2023/11/17 09:53:14;;;;;;;2.75;1.63;;;4.60;99.90;;;;;;5043546;28;20574;-66
2023/11/17 09:55:42;;;;;;;2.40;1.70;;;4.60;99.90;;;;;;5042368;28;20044;-66
2023/11/17 09:58:15;;;;;;;2.40;1.75;;;4.70;99.90;;;;;;5045659;28;20036;-66
2023/11/17 10:00:48;;;;;;;3.42;1.48;;;4.70;99.90;;;;;;5040408;28;20064;-65
2023/11/17 10:03:21;;;;;;;4.07;1.92;;;4.80;99.90;;;;;;5039368;28;20045;-66
2023/11/17 10:05:58;;;;;;;4.72;1.75;;;4.80;99.90;;;;;;5043752;28;20044;-66
2023/11/17 10:08:31;;;;;;;3.78;1.85;;;4.90;99.90;;;;;;5044021;28;20124;-66
2023/11/17 10:11:03;;;;;;;3.55;2.38;;;4.90;99.90;;;;;;5040867;28;20059;-66
2023/11/17 10:13:35;;;;;;;3.03;2.15;;;4.90;99.90;;;;;;5042984;28;20037;-66
2023/11/17 10:16:08;;;;;;;4.30;2.08;;;5.00;99.90;;;;;;5056492;28;20056;-66
2023/11/17 10:18:42;;;;;;;2.88;1.98;;;4.90;99.90;;;;;;5045058;28;20045;-66
2023/11/17 10:21:15;;;;;;;;;;;4.90;99.90;;;;;;5041951;28;20203;-66
2023/11/17 10:23:53;;;;;;;3.60;2.80;;;4.90;99.90;;;;;;5041831;28;19983;-66
2023/11/17 10:26:25;;;;;;;5.45;3.28;;;4.90;99.90;;;;;;5040680;28;20052;-66
2023/11/17 10:28:54;;;;;;;3.17;2.28;;;4.90;99.90;;;;;;5044031;28;20128;-66
2023/11/17 10:31:21;;;;;;;4.00;2.55;;;4.90;99.90;;;;;;5040995;28;20596;-66
2023/11/17 10:33:54;;;;;;;4.50;2.80;;;4.90;99.90;;;;;;5046387;28;20049;-65
2023/11/17 10:36:26;;;;;;;5.78;2.53;;;4.80;99.90;;;;;;5041608;28;20099;-65
2023/11/17 10:39:10;;;;;;;4.30;2.90;;;4.80;99.90;;;;;;5041330;28;20585;-66
2023/11/17 10:41:42;;;;;;;4.32;2.20;;;4.80;99.90;;;;;;5038943;28;20037;-66
2023/11/17 10:44:28;;;;;;;5.70;2.97;;;4.80;99.90;;;;;;5037903;28;20079;-66
2023/11/17 10:47:04;;;;;;;3.13;2.30;;;4.80;99.90;;;;;;5024248;28;20539;-65
2023/11/17 10:49:32;;;;;;;6.03;2.65;;;4.80;99.90;;;;;;5040087;28;20129;-65
2023/11/17 10:52:00;;;;;;;5.32;2.60;;;4.80;99.90;;;;;;5041515;28;20521;-66
2023/11/17 10:54:33;;;;;;;4.07;3.20;;;4.70;99.90;;;;;;5036338;28;20050;-65
2023/11/17 10:57:12;;;;;;;4.40;2.92;;;4.70;99.90;;;;;;5046885;28;20061;-66
2023/11/17 10:59:42;;;;;;;3.38;2.60;;;4.70;99.90;;;;;;5040910;28;20091;-66
2023/11/17 11:02:14;;;;;;;4.18;2.38;;;4.80;99.90;;;;;;5044979;28;20041;-66
2023/11/17 11:04:48;;;;;;;4.15;2.55;;;4.80;99.90;;;;;;5039443;28;20044;-66
2023/11/17 11:07:20;;;;;;;4.78;2.50;;;4.70;99.90;;;;;;5039406;28;20049;-66
2023/11/17 11:09:52;;;;;;;4.38;2.70;;;4.70;99.90;;;;;;5043523;28;20045;-66
2023/11/17 11:12:20;;;;;;;4.93;2.35;;;4.70;99.90;;;;;;5035241;28;20048;-66
2023/11/17 11:14:49;;;;;;;2.97;2.00;;;4.80;99.90;;;;;;5036945;28;20129;-66
2023/11/17 11:17:21;;;;;;;;;;;4.80;99.90;;;;;;5037258;28;20050;-66
2023/11/17 11:19:53;;;;;;;2.47;1.80;;;4.70;99.90;;;;;;5042311;28;19924;-66
2023/11/17 11:22:26;;;;;;;2.55;1.90;;;4.70;99.90;;;;;;5037144;28;20096;-66
2023/11/17 11:24:59;;;;;;;2.47;1.93;;;4.70;99.90;;;;;;5021997;28;20041;-66
2023/11/17 11:27:27;;;;;;;2.75;1.92;;;4.80;99.90;;;;;;5038185;28;20378;-66
2023/11/17 11:30:02;;;;;;;5.35;2.78;;;4.80;99.90;;;;;;5036260;28;20106;-66
2023/11/17 11:32:35;;;;;;;3.72;2.65;;;4.80;99.90;;;;;;5039414;28;20128;-65
2023/11/17 11:35:07;;;;;;;5.18;2.33;;;4.80;99.90;;;;;;5034086;28;20088;-66
2023/11/17 11:37:39;;;;;;;4.15;2.83;;;4.90;99.90;;;;;;5031149;28;20049;-66
2023/11/17 11:40:12;;;;;;;3.33;2.63;;;4.80;99.90;;;;;;5041426;28;20055;-65
2023/11/17 11:42:44;;;;;;;5.97;2.95;;;4.90;99.90;;;;;;5040491;28;20049;-66
2023/11/17 11:45:16;;;;;;;5.80;3.45;;;4.90;99.90;;;;;;5035393;28;20457;-66
2023/11/17 11:47:49;;;;;;;6.50;4.13;;;5.00;99.90;;;;;;5036941;28;20114;-66
2023/11/17 11:50:23;;;;;;;7.13;3.67;;;5.00;99.90;;;;;;5036653;28;20044;-66
2023/11/17 11:53:26;;;;;;;6.13;4.47;;;5.10;99.90;;;;;;5039069;28;20036;-66
2023/11/17 11:56:14;;;;;;;10.30;4.47;;;5.20;99.90;;;;;;5041164;28;20642;-65
2023/11/17 11:58:50;;;;;;;6.77;3.80;;;5.20;99.90;;;;;;5035467;28;20045;-66
2023/11/17 12:01:23;;;;;;;4.05;2.95;;;5.30;99.90;;;;;;5024667;28;20047;-66
2023/11/17 12:04:00;;;;;;;5.38;4.00;;;5.20;99.90;;;;;;5033782;28;20048;-66
2023/11/17 12:06:29;;;;;;;5.32;4.00;;;5.30;99.90;;;;;;5039579;28;20049;-66
2023/11/17 12:09:07;;;;;;;;;;;5.30;99.90;;;;;;5046665;28;20706;-66
2023/11/17 12:11:48;;;;;;;5.75;3.15;;;5.30;99.90;;;;;;5037043;28;20389;-66
2023/11/17 12:14:18;;;;;;;4.75;3.03;;;5.40;99.90;;;;;;5021790;28;20041;-66
2023/11/17 12:16:51;;;;;;;7.72;3.33;;;5.40;99.90;;;;;;5035719;28;20064;-66
2023/11/17 12:19:26;;;;;;;5.10;3.73;;;5.40;99.90;;;;;;5038063;28;20041;-66
2023/11/17 12:22:04;;;;;;;4.40;3.33;;;5.40;99.90;;;;;;5036468;28;20045;-66
2023/11/17 12:24:38;;;;;;;5.40;3.58;;;5.40;99.90;;;;;;5045550;28;20069;-66
2023/11/17 12:27:13;;;;;;;5.90;3.28;;;5.40;99.90;;;;;;5038146;28;20123;-65
2023/11/17 12:29:42;;;;;;;5.68;3.33;;;5.40;99.90;;;;;;5039958;28;20047;-65
2023/11/17 12:32:18;;;;;;;5.55;3.63;;;5.30;99.90;;;;;;5039998;28;20033;-66
2023/11/17 12:34:51;;;;;;;5.28;3.30;;;5.40;99.90;;;;;;5040789;28;20047;-66
2023/11/17 12:37:23;;;;;;;6.90;3.63;;;5.40;99.90;;;;;;5038905;28;20619;-66
2023/11/17 12:39:56;;;;;;;4.77;3.00;;;5.40;99.90;;;;;;5039387;28;20116;-66
2023/11/17 12:42:28;;;;;;;3.63;2.38;;;5.40;99.90;;;;;;5036586;28;20128;-66
2023/11/17 12:45:00;;;;;;;4.93;2.75;;;5.40;99.90;;;;;;5042164;28;20426;-66
2023/11/17 12:47:32;;;;;;;3.95;2.75;;;5.50;99.90;;;;;;5036235;28;20049;-65
2023/11/17 12:50:06;;;;;;;4.18;3.20;;;5.60;99.90;;;;;;5039136;28;20596;-69
2023/11/17 12:52:54;;;;;;;4.78;3.53;;;5.70;99.90;;;;;;5035966;28;20045;-65
2023/11/17 12:55:26;;;;;;;6.82;3.88;;;5.90;99.90;;;;;;5042311;28;20050;-64
2023/11/17 12:58:01;;;;;;;5.07;3.47;;;6.00;99.90;;;;;;5039844;28;20401;-65
2023/11/17 13:00:33;;;;;;;3.72;3.00;;;6.00;99.90;;;;;;5038253;28;20053;-65
2023/11/17 13:03:07;;;;;;;10.02;5.30;;;6.00;99.90;;;;;;5033858;28;20041;-65
2023/11/17 13:05:39;;;;;;;13.20;5.93;;;6.10;99.90;;;;;;5039614;28;20521;-65
2023/11/17 13:08:11;;;;;;;8.13;4.15;;;6.10;99.90;;;;;;5041435;28;20040;-65
2023/11/17 13:10:47;;;;;;;4.45;3.38;;;6.10;99.90;;;;;;5038092;28;20164;-65
2023/11/17 13:13:19;;;;;;;4.93;2.97;;;6.10;99.90;;;;;;5041993;28;20041;-65
2023/11/17 13:15:51;;;;;;;4.88;3.53;;;6.00;99.90;;;;;;5042331;28;20261;-65
2023/11/17 13:18:24;;;;;;;3.55;2.88;;;6.00;99.90;;;;;;5038847;28;20128;-65
2023/11/17 13:21:00;;;;;;;4.45;3.00;;;5.90;99.90;;;;;;5044428;28;20037;-65
2023/11/17 13:23:32;;;;;;;5.22;3.40;;;5.90;99.90;;;;;;5037559;28;20048;-65
2023/11/17 13:26:00;;;;;;;4.60;4.03;;;5.80;99.90;;;;;;5038315;28;20049;-65